Stallovarre — LHBG — position and weather

sailwx.info

Track history (hours):
 
Tides and Currents Weather Stations Pressure Air Temp Water Temp Dewpoint Dewpoint Depression Visibility Wind Speed Wind Dir Waves Ship Positions

Stallovarre

Last reported at 2016-Dec-08 07:28 UTC. Time now 2016-Dec-08 08:03 UTC.
Position N 59°44' E 005°56'.

Length 54 m; draft 5 m.

MMSI: 257374400.

Date/timePositionNaut miles runAvg speedWind from/ knotsBaromVisibWave heightAir tempDewpointWater temp
2016-Dec-08 07:28N 59°44' E 005°56'1 1.5
2016-Dec-08 06:32N 59°46' E 005°55'2 1.8
2016-Dec-08 05:32N 59°47' E 005°57'1 0.5
2016-Dec-08 03:08N 59°47' E 005°54'0 0.0
2016-Dec-08 02:26N 59°47' E 005°54'0 0.0
2016-Dec-07 23:19N 59°47' E 005°54'  
2016-Dec-04 12:13N 59°44' E 005°56'3 4.0
2016-Dec-04 11:30N 59°47' E 005°54'1 0.8
2016-Dec-04 10:33N 59°46' E 005°55'0 0.4
2016-Dec-04 09:21N 59°47' E 005°55'0 0.5
2016-Dec-04 08:33N 59°47' E 005°55'3 3.0
2016-Dec-04 07:34N 59°44' E 005°56'3 2.6
2016-Dec-04 06:25N 59°47' E 005°54'0 0.0
2016-Dec-04 03:31N 59°47' E 005°54'0 0.0
2016-Dec-04 01:22N 59°47' E 005°54'0 0.0
2016-Dec-04 00:25N 59°47' E 005°54'2 0.5
2016-Dec-03 20:33N 59°45' E 005°56'2 1.8
2016-Dec-03 19:33N 59°47' E 005°56'2 1.8
2016-Dec-03 18:33N 59°45' E 005°56'2 1.5
2016-Dec-03 17:15N 59°47' E 005°54'0 0.2
2016-Dec-03 16:32N 59°47' E 005°55'2 1.6
2016-Dec-03 15:33N 59°48' E 005°57'3 2.9
2016-Dec-03 14:33N 59°45' E 005°56'1 0.7
2016-Dec-03 13:33N 59°44' E 005°56'2 1.9
2016-Dec-03 12:32N 59°46' E 005°55'1 1.0
2016-Dec-03 11:33N 59°47' E 005°54'1 0.7
2016-Dec-03 10:33N 59°46' E 005°55'1 0.6
2016-Dec-03 09:29N 59°47' E 005°54'2 1.8
2016-Dec-03 08:33N 59°45' E 005°55'1 1.3
2016-Dec-03 07:30N 59°44' E 005°56'2 2.3
2016-Dec-03 06:32N 59°46' E 005°56'1 0.9
2016-Dec-03 05:25N 59°47' E 005°54'0 0.0
2016-Dec-03 04:33N 59°47' E 005°54'0 0.0
2016-Dec-03 03:31N 59°47' E 005°54'0 0.2
2016-Dec-03 02:33N 59°47' E 005°55'0 0.1
2016-Dec-03 01:31N 59°47' E 005°54'1 1.4
2016-Dec-03 00:32N 59°46' E 005°55'0 0.4
2016-Dec-02 23:34N 59°45' E 005°55'2 1.6
2016-Dec-02 22:31N 59°47' E 005°54'2 1.7
2016-Dec-02 21:33N 59°48' E 005°57'3 2.6
2016-Dec-02 20:33N 59°45' E 005°56'2 1.7
2016-Dec-02 19:33N 59°47' E 005°56'2 1.9
2016-Dec-02 18:33N 59°45' E 005°56'3 2.6
2016-Dec-02 17:32N 59°48' E 005°57'1 1.4
2016-Dec-02 16:33N 59°47' E 005°55'0 0.2
2016-Dec-02 15:10N 59°47' E 005°54'4829.5
2016-Dec-02 13:33N 58°59' E 005°48'4732.0
2016-Dec-02 12:05N 59°46' E 005°56'0 0.3
2016-Dec-02 11:29N 59°46' E 005°55'1 0.6
2016-Dec-02 09:32N 59°47' E 005°54'1 1.4
2016-Dec-02 08:33N 59°46' E 005°55'4545.4
2016-Dec-02 07:33N 59°00' E 005°49'2 2.1
2016-Dec-02 06:30N 59°02' E 005°52'3 3.5
2016-Dec-02 05:32N 58°59' E 005°48'3 3.3
2016-Dec-02 04:33N 59°02' E 005°52'3 3.1
2016-Dec-02 03:33N 58°59' E 005°48'3 2.6
2016-Dec-02 02:33N 59°01' E 005°51'3 2.8
2016-Dec-02 01:32N 58°59' E 005°48'4 4.2
2016-Dec-02 00:32N 59°02' E 005°53'5 5.1
2016-Dec-01 23:32N 58°59' E 005°46'7 6.8
2016-Dec-01 22:33N 59°04' E 005°55'4343.7
2016-Dec-01 21:33N 59°47' E 005°57'3 2.6
2016-Dec-01 20:19N 59°44' E 005°56'3 3.9
2016-Dec-01 19:33N 59°47' E 005°56'2 2.0
2016-Dec-01 18:33N 59°45' E 005°56'4747.0
2016-Dec-01 17:33N 58°58' E 005°44'4948.6
2016-Dec-01 16:32N 59°47' E 005°55'2 1.7
2016-Dec-01 15:33N 59°48' E 005°58'3 2.8
2016-Dec-01 14:33N 59°45' E 005°56'4746.1
2016-Dec-01 13:32N 58°58' E 005°44'4849.1
2016-Dec-01 12:33N 59°46' E 005°55'1 0.8
2016-Dec-01 11:31N 59°47' E 005°54'1 0.8
2016-Dec-01 10:04N 59°46' E 005°56'1 2.2
2016-Dec-01 09:31N 59°47' E 005°54'2 2.0
2016-Dec-01 08:33N 59°45' E 005°55'1 1.1
2016-Dec-01 07:31N 59°44' E 005°56'2 2.1
2016-Dec-01 06:32N 59°46' E 005°55'4838.8
2016-Dec-01 05:18N 58°58' E 005°44'8 7.7
2016-Dec-01 04:19N 59°04' E 005°55'6 8.0
2016-Dec-01 03:32N 58°59' E 005°47'4 4.3
2016-Dec-01 02:33N 59°02' E 005°52'3 3.3
2016-Dec-01 01:33N 58°60' E 005°48'2 2.1
2016-Dec-01 00:33N 59°01' E 005°50'1 0.7
2016-Nov-30 23:33N 59°01' E 005°50'4 3.6
2016-Nov-30 22:30N 58°58' E 005°44'0 0.0
2016-Nov-30 21:21N 58°58' E 005°44'7 8.2
2016-Nov-30 20:33N 59°03' E 005°53'6 6.2
2016-Nov-30 19:33N 58°58' E 005°45'6 6.1
2016-Nov-30 18:33N 59°03' E 005°53'4 4.5
2016-Nov-30 17:33N 58°59' E 005°48'4 4.3
2016-Nov-30 16:32N 59°03' E 005°53'3 1.6
2016-Nov-30 14:32N 59°00' E 005°49'2 1.8
2016-Nov-30 13:33N 59°02' E 005°52'4 3.5
2016-Nov-30 12:33N 58°59' E 005°47'4 3.7
2016-Nov-30 11:32N 59°02' E 005°52'5 5.1
2016-Nov-30 10:31N 58°58' E 005°44'0 0.0
2016-Nov-30 09:33N 58°58' E 005°44'0 0.0
2016-Nov-30 08:31N 58°58' E 005°44'0 0.0
2016-Nov-30 07:30N 58°58' E 005°44'0 0.0
2016-Nov-30 06:33N 58°58' E 005°44'0 0.0
2016-Nov-30 05:32N 58°58' E 005°44'0 0.0
2016-Nov-30 04:33N 58°58' E 005°44'0 0.0
2016-Nov-30 03:33N 58°58' E 005°44'0 0.0
2016-Nov-30 02:31N 58°58' E 005°44'0 0.0
2016-Nov-30 01:33N 58°58' E 005°44'0 0.0
2016-Nov-30 00:33N 58°58' E 005°44'0 0.0
2016-Nov-29 23:33N 58°58' E 005°44'0 0.0
2016-Nov-29 22:32N 58°58' E 005°44'0 0.0
2016-Nov-29 21:31N 58°58' E 005°44'0 0.0
2016-Nov-29 20:33N 58°58' E 005°44'0 0.0
2016-Nov-29 19:33N 58°58' E 005°44'2019.9
2016-Nov-29 18:33N 59°15' E 005°22'9 8.9
2016-Nov-29 17:33N 59°07' E 005°32'9 9.5
2016-Nov-29 16:33N 58°59' E 005°42'6 5.5
2016-Nov-29 15:33N 59°02' E 005°52'5 5.1
2016-Nov-29 14:33N 58°58' E 005°45'3 3.4
2016-Nov-29 13:33N 59°01' E 005°50'4 3.6
2016-Nov-29 12:33N 58°58' E 005°44'6 5.9
2016-Nov-29 11:33N 59°03' E 005°52'5 4.7
2016-Nov-29 10:33N 58°59' E 005°46'0 0.1
2016-Nov-29 09:33N 58°59' E 005°46'5 4.6
2016-Nov-29 08:34N 59°02' E 005°52'1 0.8
2016-Nov-29 07:33N 59°02' E 005°51'5 4.7
2016-Nov-29 06:31N 58°58' E 005°44'5 5.4
2016-Nov-29 05:33N 59°02' E 005°52'5 5.1
2016-Nov-29 04:31N 58°58' E 005°44'0 0.0
2016-Nov-29 03:31N 58°58' E 005°44'0 0.0
2016-Nov-29 02:32N 58°58' E 005°44'0 0.0
2016-Nov-29 01:32N 58°58' E 005°44'0 0.0
2016-Nov-29 00:33N 58°58' E 005°44'0 0.0
2016-Nov-28 23:33N 58°58' E 005°44'0 0.0
2016-Nov-28 22:32N 58°58' E 005°44'0 0.0
2016-Nov-28 21:33N 58°58' E 005°44'0 0.0
2016-Nov-28 20:32N 58°58' E 005°44'0 0.0
2016-Nov-28 19:33N 58°58' E 005°44'0 0.0
2016-Nov-28 18:32N 58°58' E 005°44'0 0.0
2016-Nov-28 17:31N 58°58' E 005°44'6 6.7
2016-Nov-28 16:34N 59°03' E 005°53'1 1.1
2016-Nov-28 15:34N 59°02' E 005°52'5 5.2
2016-Nov-28 14:34N 58°58' E 005°45'4 3.6
2016-Nov-28 13:33N 59°01' E 005°50'4 3.7
2016-Nov-28 12:32N 58°58' E 005°44'8 7.6
2016-Nov-28 11:32N 59°04' E 005°55'5 5.2
2016-Nov-28 10:33N 58°60' E 005°48'2 2.3
2016-Nov-28 09:34N 58°58' E 005°45'5 5.0
2016-Nov-28 08:33N 59°02' E 005°52'0 0.4
2016-Nov-28 07:33N 59°02' E 005°51'  
Track history (hours):
 
Tides and Currents Weather Stations Pressure Air Temp Water Temp Dewpoint Dewpoint Depression Visibility Wind Speed Wind Dir Waves Ship Positions

Stallovarre

Last reported at 2016-Dec-08 07:28 UTC. Time now 2016-Dec-08 08:03 UTC.
Position N 59°44' E 005°56'.

Length 54 m; draft 5 m.

MMSI: 257374400.

Date/timePositionNaut miles runAvg speedWind from/ knotsBaromVisibWave heightAir tempDewpointWater temp
2016-Dec-08 07:28N 59°44' E 005°56'1 1.5
2016-Dec-08 06:32N 59°46' E 005°55'2 1.8
2016-Dec-08 05:32N 59°47' E 005°57'1 0.5
2016-Dec-08 03:08N 59°47' E 005°54'0 0.0
2016-Dec-08 02:26N 59°47' E 005°54'0 0.0
2016-Dec-07 23:19N 59°47' E 005°54'  
2016-Dec-04 12:13N 59°44' E 005°56'3 4.0
2016-Dec-04 11:30N 59°47' E 005°54'1 0.8
2016-Dec-04 10:33N 59°46' E 005°55'0 0.4
2016-Dec-04 09:21N 59°47' E 005°55'0 0.5
2016-Dec-04 08:33N 59°47' E 005°55'3 3.0
2016-Dec-04 07:34N 59°44' E 005°56'3 2.6
2016-Dec-04 06:25N 59°47' E 005°54'0 0.0
2016-Dec-04 03:31N 59°47' E 005°54'0 0.0
2016-Dec-04 01:22N 59°47' E 005°54'0 0.0
2016-Dec-04 00:25N 59°47' E 005°54'2 0.5
2016-Dec-03 20:33N 59°45' E 005°56'2 1.8
2016-Dec-03 19:33N 59°47' E 005°56'2 1.8
2016-Dec-03 18:33N 59°45' E 005°56'2 1.5
2016-Dec-03 17:15N 59°47' E 005°54'0 0.2
2016-Dec-03 16:32N 59°47' E 005°55'2 1.6
2016-Dec-03 15:33N 59°48' E 005°57'3 2.9
2016-Dec-03 14:33N 59°45' E 005°56'1 0.7
2016-Dec-03 13:33N 59°44' E 005°56'2 1.9
2016-Dec-03 12:32N 59°46' E 005°55'1 1.0
2016-Dec-03 11:33N 59°47' E 005°54'1 0.7
2016-Dec-03 10:33N 59°46' E 005°55'1 0.6
2016-Dec-03 09:29N 59°47' E 005°54'2 1.8
2016-Dec-03 08:33N 59°45' E 005°55'1 1.3
2016-Dec-03 07:30N 59°44' E 005°56'2 2.3
2016-Dec-03 06:32N 59°46' E 005°56'1 0.9
2016-Dec-03 05:25N 59°47' E 005°54'0 0.0
2016-Dec-03 04:33N 59°47' E 005°54'0 0.0
2016-Dec-03 03:31N 59°47' E 005°54'0 0.2
2016-Dec-03 02:33N 59°47' E 005°55'0 0.1
2016-Dec-03 01:31N 59°47' E 005°54'1 1.4
2016-Dec-03 00:32N 59°46' E 005°55'0 0.4
2016-Dec-02 23:34N 59°45' E 005°55'2 1.6
2016-Dec-02 22:31N 59°47' E 005°54'2 1.7
2016-Dec-02 21:33N 59°48' E 005°57'3 2.6
2016-Dec-02 20:33N 59°45' E 005°56'2 1.7
2016-Dec-02 19:33N 59°47' E 005°56'2 1.9
2016-Dec-02 18:33N 59°45' E 005°56'3 2.6
2016-Dec-02 17:32N 59°48' E 005°57'1 1.4
2016-Dec-02 16:33N 59°47' E 005°55'0 0.2
2016-Dec-02 15:10N 59°47' E 005°54'4829.5
2016-Dec-02 13:33N 58°59' E 005°48'4732.0
2016-Dec-02 12:05N 59°46' E 005°56'0 0.3
2016-Dec-02 11:29N 59°46' E 005°55'1 0.6
2016-Dec-02 09:32N 59°47' E 005°54'1 1.4
2016-Dec-02 08:33N 59°46' E 005°55'4545.4
2016-Dec-02 07:33N 59°00' E 005°49'2 2.1
2016-Dec-02 06:30N 59°02' E 005°52'3 3.5
2016-Dec-02 05:32N 58°59' E 005°48'3 3.3
2016-Dec-02 04:33N 59°02' E 005°52'3 3.1
2016-Dec-02 03:33N 58°59' E 005°48'3 2.6
2016-Dec-02 02:33N 59°01' E 005°51'3 2.8
2016-Dec-02 01:32N 58°59' E 005°48'4 4.2
2016-Dec-02 00:32N 59°02' E 005°53'5 5.1
2016-Dec-01 23:32N 58°59' E 005°46'7 6.8
2016-Dec-01 22:33N 59°04' E 005°55'4343.7
2016-Dec-01 21:33N 59°47' E 005°57'3 2.6
2016-Dec-01 20:19N 59°44' E 005°56'3 3.9
2016-Dec-01 19:33N 59°47' E 005°56'2 2.0
2016-Dec-01 18:33N 59°45' E 005°56'4747.0
2016-Dec-01 17:33N 58°58' E 005°44'4948.6
2016-Dec-01 16:32N 59°47' E 005°55'2 1.7
2016-Dec-01 15:33N 59°48' E 005°58'3 2.8
2016-Dec-01 14:33N 59°45' E 005°56'4746.1
2016-Dec-01 13:32N 58°58' E 005°44'4849.1
2016-Dec-01 12:33N 59°46' E 005°55'1 0.8
2016-Dec-01 11:31N 59°47' E 005°54'1 0.8
2016-Dec-01 10:04N 59°46' E 005°56'1 2.2
2016-Dec-01 09:31N 59°47' E 005°54'2 2.0
2016-Dec-01 08:33N 59°45' E 005°55'1 1.1
2016-Dec-01 07:31N 59°44' E 005°56'2 2.1
2016-Dec-01 06:32N 59°46' E 005°55'4838.8
2016-Dec-01 05:18N 58°58' E 005°44'8 7.7
2016-Dec-01 04:19N 59°04' E 005°55'6 8.0
2016-Dec-01 03:32N 58°59' E 005°47'4 4.3
2016-Dec-01 02:33N 59°02' E 005°52'3 3.3
2016-Dec-01 01:33N 58°60' E 005°48'2 2.1
2016-Dec-01 00:33N 59°01' E 005°50'1 0.7
2016-Nov-30 23:33N 59°01' E 005°50'4 3.6
2016-Nov-30 22:30N 58°58' E 005°44'0 0.0
2016-Nov-30 21:21N 58°58' E 005°44'7 8.2
2016-Nov-30 20:33N 59°03' E 005°53'6 6.2
2016-Nov-30 19:33N 58°58' E 005°45'6 6.1
2016-Nov-30 18:33N 59°03' E 005°53'4 4.5
2016-Nov-30 17:33N 58°59' E 005°48'4 4.3
2016-Nov-30 16:32N 59°03' E 005°53'3 1.6
2016-Nov-30 14:32N 59°00' E 005°49'2 1.8
2016-Nov-30 13:33N 59°02' E 005°52'4 3.5
2016-Nov-30 12:33N 58°59' E 005°47'4 3.7
2016-Nov-30 11:32N 59°02' E 005°52'5 5.1
2016-Nov-30 10:31N 58°58' E 005°44'0 0.0
2016-Nov-30 09:33N 58°58' E 005°44'0 0.0
2016-Nov-30 08:31N 58°58' E 005°44'0 0.0
2016-Nov-30 07:30N 58°58' E 005°44'0 0.0
2016-Nov-30 06:33N 58°58' E 005°44'0 0.0
2016-Nov-30 05:32N 58°58' E 005°44'0 0.0
2016-Nov-30 04:33N 58°58' E 005°44'0 0.0
2016-Nov-30 03:33N 58°58' E 005°44'0 0.0
2016-Nov-30 02:31N 58°58' E 005°44'0 0.0
2016-Nov-30 01:33N 58°58' E 005°44'0 0.0
2016-Nov-30 00:33N 58°58' E 005°44'0 0.0
2016-Nov-29 23:33N 58°58' E 005°44'0 0.0
2016-Nov-29 22:32N 58°58' E 005°44'0 0.0
2016-Nov-29 21:31N 58°58' E 005°44'0 0.0
2016-Nov-29 20:33N 58°58' E 005°44'0 0.0
2016-Nov-29 19:33N 58°58' E 005°44'2019.9
2016-Nov-29 18:33N 59°15' E 005°22'9 8.9
2016-Nov-29 17:33N 59°07' E 005°32'9 9.5
2016-Nov-29 16:33N 58°59' E 005°42'6 5.5
2016-Nov-29 15:33N 59°02' E 005°52'5 5.1
2016-Nov-29 14:33N 58°58' E 005°45'3 3.4
2016-Nov-29 13:33N 59°01' E 005°50'4 3.6
2016-Nov-29 12:33N 58°58' E 005°44'6 5.9
2016-Nov-29 11:33N 59°03' E 005°52'5 4.7
2016-Nov-29 10:33N 58°59' E 005°46'0 0.1
2016-Nov-29 09:33N 58°59' E 005°46'5 4.6
2016-Nov-29 08:34N 59°02' E 005°52'1 0.8
2016-Nov-29 07:33N 59°02' E 005°51'5 4.7
2016-Nov-29 06:31N 58°58' E 005°44'5 5.4
2016-Nov-29 05:33N 59°02' E 005°52'5 5.1
2016-Nov-29 04:31N 58°58' E 005°44'0 0.0
2016-Nov-29 03:31N 58°58' E 005°44'0 0.0
2016-Nov-29 02:32N 58°58' E 005°44'0 0.0
2016-Nov-29 01:32N 58°58' E 005°44'0 0.0
2016-Nov-29 00:33N 58°58' E 005°44'0 0.0
2016-Nov-28 23:33N 58°58' E 005°44'0 0.0
2016-Nov-28 22:32N 58°58' E 005°44'0 0.0
2016-Nov-28 21:33N 58°58' E 005°44'0 0.0
2016-Nov-28 20:32N 58°58' E 005°44'0 0.0
2016-Nov-28 19:33N 58°58' E 005°44'0 0.0
2016-Nov-28 18:32N 58°58' E 005°44'0 0.0
2016-Nov-28 17:31N 58°58' E 005°44'6 6.7
2016-Nov-28 16:34N 59°03' E 005°53'1 1.1
2016-Nov-28 15:34N 59°02' E 005°52'5 5.2
2016-Nov-28 14:34N 58°58' E 005°45'4 3.6
2016-Nov-28 13:33N 59°01' E 005°50'4 3.7
2016-Nov-28 12:32N 58°58' E 005°44'8 7.6
2016-Nov-28 11:32N 59°04' E 005°55'5 5.2
2016-Nov-28 10:33N 58°60' E 005°48'2 2.3
2016-Nov-28 09:34N 58°58' E 005°45'5 5.0
2016-Nov-28 08:33N 59°02' E 005°52'0 0.4
2016-Nov-28 07:33N 59°02' E 005°51'  

Dump ship's entire track history